메인 페이지
METAR-TAF:

METAR-TAF

공항 :

보스턴, 매사추세츠, 미국

로건 국제공항

위도: 42-21-38N, 경도: 071-00-38W, 고도: 6m

현재 날씨관측

예보는 30분 전, 20:54시(UTC)에 발표되었습니다.
서남서6kt
온도 6°C
습도 81%
기압 1006 hPa
시정: 12.9km
고도 1700ft 상공 구름 보통
고도 3200ft 상공 구름 많음
고도 5000ft 상공 흐림
약한비

METAR: KBOS 192054Z 25006KT 8SM -RA SCT017 BKN032 OVC050 06/03 A2971 RMK AO2 RAE1958B23 SLP059 P0001 60002 T00560028 51014

시각: 17:24 (21:24 UTC)

예보

예보는 1 시간 26분 전, 19:58시(UTC)에 발표되었습니다.
예보 대상 시간: 19일 20시부터 20일 24시까지 (UTC)
서북서6kt
시정: 10km
고도 1500ft 상공 구름 보통
고도 4500ft 상공 흐림
약한소나기
19일 2200시부터 (UTC)
서북서5kt
시정: 10km
고도 3500ft 상공 흐림
약한소나기
20일 0000시부터 (UTC)
서북서7kt
시정: 10km
고도 4500ft 상공 흐림
시계 내 소나기
20일 0400시부터 (UTC)
북서10kt, 순간 최대 풍속 17kt
시정: 10km
고도 6000ft 상공 흐림
20일 1400시부터 (UTC)
서북서14kt, 순간 최대 풍속 21kt
시정: 10km
고도 4500ft 상공 구름 많음

TAF: KBOS 191958Z 1920/2024 29006KT P6SM -SHRA SCT015 OVC045 FM192200 30005KT P6SM -SHRA OVC035 FM200000 30007KT P6SM VCSH OVC045 FM200400 31010G17KT P6SM OVC060 FM201400 30014G21KT P6SM BKN045

4,000개 이상의 공항 관측 자료 및 예보 (METAR 및 TAF 보고).

지도상에서 검색 가능한 기상관측소가 노란 점과 빨간 점으로 표시되어 있습니다.

기상관측소 명을 보려면 표시 위로 마우스를 이동하세요.

날씨 관측과 예보를 보려면 클릭하세요.

지도 변경 : 확대하려면 엑스 표시가 있는 녹색 버튼, 축소하려면 빼기 표시가 있는 녹색 버튼, 다음 페이지의 지도를 보려면 녹색 화살표를 클릭하세요.


METAR-TAF: